dimanche 13 mai 2018

Le Classement original se trouve sur : http://www.15kmwoluwe.com/page/34/Resultats.html  
 
LES 15KM DE WOLUWE-SAINT-LAMBERT
DISTANCE : 30.00 km
dimanche 13 mai 2018
 
Place Dos NOM Equipe Catégorie Pl/cat temps temps/km Vitesse
1 3233 SANCHIDRIAN ALBERTO   V1 1 2:04:54 04:10 14.41
2 3217 WEITKUNAT BAPTISTE RUN ATTITUDE SH 1 2:08:40 04:17 13.99
3 3266 BEN AZZUZ RIDWAN DAC SH 2 2:08:41 04:17 13.99
4 3254 GELDOF BARTHELEMY   SH 3 2:11:26 04:23 13.69
5 3239 SPETH CHRISTOPHE   SH 4 2:11:49 04:24 13.65
6 3067 LEMAIRE IVAN   V1 2 2:12:47 04:26 13.55
7 3012 SNOECK DIDIER   V1 3 2:15:16 04:31 13.31
8 3103 WOUTERS SEBASTIAN KAAG SH 5 2:15:28 04:31 13.29
9 3228 PASCAL JÉRÔME   V1 4 2:16:48 04:34 13.16
10 3235 LELIÈVRE THIERRY JOGGANS V1 5 2:17:20 04:35 13.11
11 3058 GRIMAN FABIEN   SH 6 2:17:53 04:36 13.05
12 3234 VANDEWAL MARTIJN   SH 7 2:19:21 04:39 12.92
13 3251 BEN SALEM HAYTHEM 30TODAY SH 8 2:22:46 04:46 12.61
14 3002 MATHIEU NIELS   SH 9 2:23:03 04:46 12.58
15 3267 BORCEUX FRANÇOIS RCB V1 6 2:24:09 04:48 12.49
16 3063 JODOGNE RAPHAËL   V1 7 2:24:28 04:49 12.46
17 3211 DEVUYST MAX   V1 8 2:24:50 04:50 12.43
18 3010 PEETERS TOM   V1 9 2:25:31 04:51 12.37
19 3030 BAJA MIHAI   SH 10 2:25:38 04:51 12.36
20 3036 CARL SIMON   V1 10 2:25:51 04:52 12.34
21 3019 DE BOOM TOM   SH 11 2:25:52 04:52 12.34
22 3264 PONCHON MICHEL   V2 1 2:26:03 04:52 12.32
23 3100 VAN ACKER EMMANUEL   V1 11 2:26:03 04:52 12.32
24 3060 HENQUINET QUENTIN THARÉ TEAM TRAI SH 12 2:26:04 04:52 12.32
25 3274 MARTINO DOSSI   SH 13 2:26:19 04:53 12.30
26 3042 DE GRAVE OLIVIER CSF MYSTÈRE V2 2 2:29:00 04:58 12.08
27 3040 CULLOP PAUL ENJAMBEE V2 3 2:29:27 04:59 12.04
28 3031 BORG GRETA   SD 1 2:29:32 04:59 12.04
29 3015 CRESSY GUILLAUME   SH 14 2:29:35 04:59 12.03
30 3248 MOUNIER CHRISTOPHE   SH 15 2:30:25 05:01 11.97
31 3098 TORDEUR DAN RUNNIN'GREZ V1 12 2:31:21 05:03 11.89
32 3271 LOOMANS DIDIER   V1 13 2:32:09 05:04 11.83
33 3082 ORTS RAPHAEL   V1 14 2:33:59 05:08 11.69
34 3047 DIMEY ANTOINE   SH 16 2:34:12 05:08 11.67
35 3225 VANDECAVEYE FLORENCE RCB GAL SD 2 2:34:14 05:08 11.67
36 3215 CARELS TODD   SH 17 2:34:22 05:09 11.66
37 3092 SELIS FRÉDÉRIC   V1 15 2:34:47 05:10 11.63
38 3059 HANNAERT OLIVIER HANNAERT V1 16 2:34:47 05:10 11.63
39 3022 OGER LAURENT SACRÉ COEUR DE SH 18 2:34:54 05:10 11.62
40 3018 VITRE FRÉDÉRIC   V1 17 2:35:34 05:11 11.57
41 3256 CARMINATI MIKE   SH 19 2:35:38 05:11 11.56
42 3081 OLBRECHTS PETER   V1 18 2:35:40 05:11 11.56
43 3241 COCQUEREAUX ERIK   V1 19 2:37:08 05:14 11.45
44 3003 VOLONTE PIERRE YVES   V1 20 2:37:17 05:15 11.44
45 3075 MICHELS NATHALIE KAAG SD 3 2:37:34 05:15 11.42
46 3071 MARTINEZ JOAQUIN   V1 21 2:37:47 05:16 11.41
47 3269 TRUONG BAO NGUYEN RUNYOURLIFE.BE SH 20 2:37:55 05:16 11.40
48 3265 DRAGU MARIUS   V1 22 2:38:07 05:16 11.38
49 3243 VAN VRECKEM STIJN   SH 21 2:38:55 05:18 11.33
50 3062 JOAO PIMENTEL JOAO GONCALVES SH 22 2:39:48 05:20 11.26
51 3068 LESOIL PHILIPPE ENJAMBEE V2 4 2:39:56 05:20 11.25
52 3083 PASCUAL PIERRE-LUC   V1 23 2:40:19 05:21 11.23
53 3275 BADOT HADRIEN   SH 23 2:40:43 05:21 11.20
54 3026 ABRAHAM YANN   V1 24 2:40:49 05:22 11.19
55 3024 FAUVET MÉLISANDE ZATACBXL15WOLUW SD 4 2:42:22 05:25 11.08
56 3029 ARHUIS FLORENT COURIR À SAINT SH 24 2:43:20 05:27 11.02
57 3253 MEYNET GUILLAUME   SH 25 2:43:57 05:28 10.98
58 3249 VAN DE VEN BART LES GAZELLES DE SH 26 2:44:00 05:28 10.97
59 3020 NOCEDA JOSE   V1 25 2:44:15 05:29 10.96
60 3001 APPELTANS MARIO   V1 26 2:44:31 05:29 10.94
61 3250 DE CEUKELAIRE WIM LES GAZELLES DE V2 5 2:44:34 05:29 10.94
62 3268 BLANCHART NICOLAS   SH 27 2:44:39 05:29 10.93
63 3034 BRIES ALAIN   V2 6 2:45:23 05:31 10.88
64 3247 LINDEKENS CHRISTIAN   V1 27 2:45:48 05:32 10.86
65 3017 WILLEMS MARTIN   V1 28 2:46:06 05:32 10.84
66 3074 MEZIANI MOHAND CSF/MYSTÉRE V2 7 2:46:13 05:32 10.83
67 3061 IVARRA LUC   SH 28 2:47:11 05:34 10.77
68 3089 RIESTRA LUEGE JOSÉ MANUEL   V1 29 2:47:13 05:34 10.76
69 3240 NECKEBROECK RONNY LEONTINE   V1 30 2:47:42 05:35 10.73
70 3242 BACCAERT JEHAN   SH 29 2:48:09 05:36 10.70
71 3077 MOLITOR PHILIPPE   V2 8 2:48:16 05:37 10.70
72 3229 PASCAL ANNE   A1 1 2:48:35 05:37 10.68
73 3016 LACOSTE HADRIEN CARIBOOST SH 30 2:48:50 05:38 10.66
74 3021 DECONINCK GAUTHIER CREE ASBL SH 31 2:48:57 05:38 10.65
75 3091 SCOUBEAU OLIVIER HAC V2 9 2:49:09 05:38 10.64
76 3272 PIERRE SCHMIDT   V1 31 2:49:13 05:38 10.64
77 3246 VOISIN JEAN-BASTIEN   V1 32 2:49:24 05:39 10.62
78 3244 MILCENT XAVIER   V1 33 2:49:24 05:39 10.62
79 3237 SANDRONE LUCAS   SH 32 2:50:09 05:40 10.58
80 3056 GONZALEZ MIGUEL CEPAL + CACE V2 10 2:50:17 05:41 10.57
81 3231 CARTIAUX OLIVIER   SH 33 2:51:45 05:44 10.48
82 3214 EDDAK WAFAE   SD 5 2:52:32 05:45 10.43
83 3044 DELLA FAILLE GILLES   V1 34 2:52:55 05:46 10.41
84 3033 BOURGOIS MATHIEU HIKING IN BELGI SH 34 2:54:43 05:49 10.30
85 3224 RAC KAROL   SH 35 2:55:10 05:50 10.27
86 3227 JAROUD SAID   V1 35 2:56:20 05:53 10.21
87 3096 TENAUD VALENTIN   SH 36 2:56:49 05:54 10.18
88 3102 VERHAEGHE XAVIER   V2 11 2:58:31 05:57 10.08
89 3090 NESI JEAN-PAUL   V2 12 2:58:36 05:57 10.08
90 3087 PLATON GILBERT   V2 13 2:58:55 05:58 10.06
91 3050 EVELINE VANHYFTE   SD 6 2:59:09 05:58 10.05
92 3245 SMRZ JAROSLAV   V1 36 2:59:10 05:58 10.05
93 3210 WILSSENS DRIES   SH 37 2:59:19 05:59 10.04
94 3014 GALAND DENIS ETENGHIEN SH 38 2:59:46 06:00 10.01
95 3094 SPELLANZON MICHAEL FRT BINCHE V1 37 3:01:52 06:04 9.90
96 3051 FRANS EVI   SD 7 3:02:04 06:04 9.89
97 3046 DEVRIENDT CATELIJNE   A1 2 3:02:05 06:04 9.88
98 3078 MOLITOR SIMON SIMON MOLITOR SH 39 3:02:11 06:04 9.88
99 3226 MIJA OANA RCB A1 3 3:02:28 06:05 9.86
100 3213 CRIVELLARO GIANCARLO CACE V2 14 3:02:41 06:05 9.85
101 3076 MOERENHOUT DANNY   V1 38 3:02:48 06:06 9.85
102 3011 DHAESE OLIVIER JACQUES   V1 39 3:04:18 06:09 9.77
103 3216 DRYMAEL JULIE   SD 8 3:07:14 06:15 9.61
104 3095 SZYMANIAK ALEXANDRE SZYMANIAK SH 40 3:07:14 06:15 9.61
105 3236 PEYTHIEU DAVID   V1 40 3:07:33 06:15 9.60
106 3025 DURT THÉO   SH 41 3:07:59 06:16 9.57
107 3255 HEYNDRICKX JAN   V2 15 3:07:59 06:16 9.57
108 3263 JACQUET YVAN   V2 16 3:10:00 06:20 9.47
109 3027 ALHADEFF LAURENT   V1 41 3:10:28 06:21 9.45
110 3037 CLAES ALEXANDRE AHOLD/DELHAIZE V2 17 3:10:58 06:22 9.42
111 3085 PEYCKER STEPHANE RUNYOURLIFE.BE V1 42 3:10:59 06:22 9.42
112 3221 WILLEMSEN ARNO MARIA   V2 18 3:11:31 06:23 9.40
113 3023 DOCLOT ALEXIS ECOLE SAINT-HEN SH 42 3:11:54 06:24 9.38
114 3212 RIBEAUCOURT PHILIPPE PIERRE   SH 43 3:12:06 06:24 9.37
115 3004 SARENS PATRICK   V2 19 3:12:33 06:25 9.35
116 3048 DKHISSI MOHAMMED   V2 20 3:13:28 06:27 9.30
117 3064 LAIR BENOIT   V1 43 3:15:00 06:30 9.23
118 3052 FURUYA CRYSTAL   A1 4 3:15:17 06:31 9.22
119 3232 BERGALLOU OMAR   V2 21 3:16:53 06:34 9.14
120 3101 VASCONCELOS LUIS   V2 22 3:21:07 06:42 8.95
121 3057 GOULT CHRISTOPHE   V1 44 3:22:56 06:46 8.87
122 3223 NICOLA MORRIS   A2 1 3:24:08 06:48 8.82
123 3070 MAGITS JENS   SH 44 3:24:24 06:49 8.81
124 3222 COOMAN CHRISTOPHE   V1 45 3:26:00 06:52 8.74
125 3039 COUDRAY RACHEL AXA RUNNING TEA SD 9 3:26:24 06:53 8.72
126 3079 MONTERO PIERRE AXA RUNNING TEA V2 23 3:26:30 06:53 8.72
127 3045 DELVAUX YVES AXA TEAM V3 1 3:28:39 06:57 8.63
128 3038 COOPER TIMOTHY   V2 24 3:31:12 07:02 8.52
129 3219 DUQUESNE PAUL   V2 25 3:31:57 07:04 8.49
130 3218 ZAGO ARDUINO FRT BINCHE V2 26 3:31:57 07:04 8.49
131 3220 MAHIEU OLIVIER   SH 45 3:32:49 07:06 8.46
132 3066 LEGROS FREDERIC AXA TEAM V1 46 3:37:07 07:14 8.29
133 3035 BRODEN PHILIPPE JC HSH V2 27 3:37:52 07:16 8.26
134 3230 STERCKX FABIENNE HAM-SUR-HEURE A2 2 3:37:55 07:16 8.26
135 3099 TROIA GIOVANNA ENJAMBEE A2 3 3:41:19 07:23 8.13
136 3086 PINON WILLIAM ENJAMBEE V2 28 3:41:19 07:23 8.13
137 3054 GAUTIER LOUISE   SD 10 3:45:03 07:30 8.00
138 3055 GIRARDET CORALIE RUNYOURLIFE.BE A2 4 3:45:31 07:31 7.98
139 3072 MEHU SANDRA RUNYOULIFE.BE A2 5 3:45:32 07:31 7.98
140 3073 MERLIN JOËLLE RUNYOURLIFE.BE A1 5 3:56:05 07:52 7.62